createdAt,value
2022-12-03T00:00:40.449Z,1.50
2022-12-03T00:03:07.481Z,1.50
2022-12-03T00:05:34.665Z,1.40
2022-12-03T00:08:01.652Z,1.40
2022-12-03T00:10:28.694Z,1.40
2022-12-03T00:12:55.836Z,1.50
2022-12-03T00:15:22.789Z,1.40
2022-12-03T00:17:49.829Z,1.50
2022-12-03T00:20:23.342Z,1.50
2022-12-03T00:22:51.006Z,1.50
2022-12-03T00:25:18.398Z,1.50
2022-12-03T00:27:45.705Z,1.40
2022-12-03T00:30:13.471Z,1.40
2022-12-03T00:32:40.405Z,1.40
2022-12-03T00:35:07.657Z,1.50
2022-12-03T00:37:35.364Z,1.50
2022-12-03T00:40:06.831Z,1.50
2022-12-03T00:42:33.825Z,1.50
2022-12-03T00:45:00.947Z,1.50
2022-12-03T00:47:28.075Z,1.50
2022-12-03T00:49:55.010Z,1.60
2022-12-03T00:52:22.029Z,1.60
2022-12-03T00:54:49.099Z,1.60
2022-12-03T00:57:16.068Z,1.50
2022-12-03T00:59:43.010Z,1.50
2022-12-03T01:02:10.165Z,1.50
2022-12-03T01:04:37.626Z,1.60
2022-12-03T01:07:04.767Z,1.60
2022-12-03T01:09:32.091Z,1.60
2022-12-03T01:11:59.070Z,1.60
2022-12-03T01:14:26.144Z,1.50
2022-12-03T01:16:53.125Z,1.50
2022-12-03T01:19:20.216Z,1.60
2022-12-03T01:21:50.184Z,1.60
2022-12-03T01:24:18.837Z,1.60
2022-12-03T01:26:45.868Z,1.60
2022-12-03T01:29:13.328Z,1.60
2022-12-03T01:31:59.008Z,1.60
2022-12-03T01:34:26.101Z,1.60
2022-12-03T01:36:53.099Z,1.50
2022-12-03T01:39:21.685Z,1.50
2022-12-03T01:41:50.322Z,1.50
2022-12-03T01:44:24.237Z,1.50
2022-12-03T01:46:53.263Z,1.50
2022-12-03T01:49:26.762Z,1.60
2022-12-03T01:51:55.311Z,1.60
2022-12-03T01:54:27.489Z,1.60
2022-12-03T01:56:55.600Z,1.60
2022-12-03T01:59:28.181Z,1.70
2022-12-03T02:01:55.226Z,1.70
2022-12-03T02:04:23.439Z,1.70
2022-12-03T02:06:50.665Z,1.70
2022-12-03T02:09:17.599Z,1.70
2022-12-03T02:11:48.906Z,1.70
2022-12-03T02:14:20.142Z,1.70
2022-12-03T02:16:47.393Z,1.70
2022-12-03T02:19:24.423Z,1.70
2022-12-03T02:22:19.121Z,1.70
2022-12-03T02:25:04.589Z,1.70
2022-12-03T02:27:31.574Z,1.60
2022-12-03T02:29:58.702Z,1.70
2022-12-03T02:32:25.899Z,1.60
2022-12-03T02:34:53.230Z,1.70
2022-12-03T02:37:27.844Z,1.60
2022-12-03T02:39:58.267Z,1.60
2022-12-03T02:42:37.911Z,1.60
2022-12-03T02:45:13.442Z,1.60
2022-12-03T02:47:56.499Z,1.70
2022-12-03T02:50:29.009Z,1.70
2022-12-03T02:52:58.306Z,1.70
2022-12-03T02:55:27.367Z,1.70
2022-12-03T02:57:57.312Z,1.70
2022-12-03T03:00:24.635Z,1.70
2022-12-03T03:02:51.659Z,1.70
2022-12-03T03:05:22.010Z,1.70
2022-12-03T03:07:50.513Z,1.70
2022-12-03T03:10:21.479Z,1.70
2022-12-03T03:12:48.763Z,1.70
2022-12-03T03:15:16.173Z,1.70
2022-12-03T03:17:43.525Z,1.80
2022-12-03T03:20:11.957Z,1.70
2022-12-03T03:22:41.035Z,1.80
2022-12-03T03:25:12.457Z,1.80
2022-12-03T03:27:41.454Z,1.80
2022-12-03T03:30:10.029Z,1.80
2022-12-03T03:32:38.508Z,1.80
2022-12-03T03:35:07.086Z,1.80
2022-12-03T03:37:34.204Z,1.70
2022-12-03T03:40:01.286Z,1.70
2022-12-03T03:42:29.009Z,1.80
2022-12-03T03:44:56.157Z,1.80
2022-12-03T03:47:23.974Z,1.80
2022-12-03T03:49:51.053Z,1.80
2022-12-03T03:52:19.727Z,1.80
2022-12-03T03:54:47.265Z,1.80
2022-12-03T03:57:14.497Z,1.80
2022-12-03T03:59:41.796Z,1.80
2022-12-03T04:02:20.970Z,1.80
2022-12-03T04:04:48.825Z,1.80
2022-12-03T04:07:16.278Z,1.80
2022-12-03T04:09:43.601Z,1.80
2022-12-03T04:12:31.602Z,1.70
2022-12-03T04:14:58.894Z,1.80
2022-12-03T04:17:25.956Z,1.70
2022-12-03T04:19:52.933Z,1.70
2022-12-03T04:22:38.343Z,1.70
2022-12-03T04:25:24.124Z,1.70
2022-12-03T04:28:09.559Z,1.70
2022-12-03T04:30:36.575Z,1.70
2022-12-03T04:33:22.087Z,1.80
2022-12-03T04:35:49.161Z,1.80
2022-12-03T04:38:16.967Z,1.80
2022-12-03T04:41:01.948Z,1.70
2022-12-03T04:43:55.798Z,1.80
2022-12-03T04:46:22.882Z,1.80
2022-12-03T04:48:49.893Z,1.70
2022-12-03T04:51:16.935Z,1.70
2022-12-03T04:53:46.301Z,1.70
2022-12-03T04:56:13.460Z,1.70
2022-12-03T04:58:40.468Z,1.70
2022-12-03T05:01:07.468Z,1.70
2022-12-03T05:03:34.476Z,1.70
2022-12-03T05:06:01.449Z,1.80
2022-12-03T05:08:28.438Z,1.80
2022-12-03T05:10:55.379Z,1.80
2022-12-03T05:13:22.335Z,1.80
2022-12-03T05:15:49.315Z,1.80
2022-12-03T05:18:16.334Z,1.80
2022-12-03T05:20:48.400Z,1.80
2022-12-03T05:23:19.985Z,1.80
2022-12-03T05:25:47.098Z,1.80
2022-12-03T05:28:14.113Z,1.80
2022-12-03T05:30:41.542Z,1.90
2022-12-03T05:33:08.498Z,1.90
2022-12-03T05:35:35.513Z,1.90
2022-12-03T05:38:02.499Z,1.80
2022-12-03T05:40:29.512Z,1.80
2022-12-03T05:43:01.311Z,1.80
2022-12-03T05:45:31.012Z,1.80
2022-12-03T05:47:59.130Z,1.80
2022-12-03T05:50:28.855Z,1.80
2022-12-03T05:52:56.552Z,1.80
2022-12-03T05:55:24.082Z,1.80
2022-12-03T05:57:51.059Z,1.80
2022-12-03T06:00:29.710Z,1.80
2022-12-03T06:02:57.314Z,1.80
2022-12-03T06:05:25.002Z,1.80
2022-12-03T06:07:53.217Z,1.80
2022-12-03T06:10:23.127Z,1.70
2022-12-03T06:12:50.855Z,1.80
2022-12-03T06:15:18.508Z,1.80
2022-12-03T06:17:46.135Z,1.70
2022-12-03T06:20:16.019Z,1.70
2022-12-03T06:22:43.760Z,1.80
2022-12-03T06:25:11.603Z,1.80
2022-12-03T06:27:38.874Z,1.80
2022-12-03T06:30:08.693Z,1.80
2022-12-03T06:32:36.181Z,1.70
2022-12-03T06:35:03.233Z,1.70
2022-12-03T06:37:30.286Z,1.80
2022-12-03T06:39:57.237Z,1.80
2022-12-03T06:42:24.342Z,1.80
2022-12-03T06:44:51.543Z,1.70
2022-12-03T06:47:18.673Z,1.70
2022-12-03T06:49:45.740Z,1.70
2022-12-03T06:52:12.705Z,1.70
2022-12-03T06:54:39.710Z,1.70
2022-12-03T06:57:06.701Z,1.60
2022-12-03T06:59:35.864Z,1.60
2022-12-03T07:02:03.246Z,1.70
2022-12-03T07:04:30.249Z,1.70
2022-12-03T07:06:57.301Z,1.60
2022-12-03T07:09:24.615Z,1.70
2022-12-03T07:11:51.641Z,1.60
2022-12-03T07:14:18.620Z,1.60
2022-12-03T07:16:47.923Z,1.60
2022-12-03T07:19:15.463Z,1.60
2022-12-03T07:21:42.518Z,1.60
2022-12-03T07:24:09.620Z,1.70
2022-12-03T07:26:36.727Z,1.60
2022-12-03T07:29:04.118Z,1.60
2022-12-03T07:31:31.163Z,1.60
2022-12-03T07:33:58.211Z,1.60
2022-12-03T07:36:25.190Z,1.70
2022-12-03T07:38:52.278Z,1.70
2022-12-03T07:41:19.251Z,1.60
2022-12-03T07:43:46.297Z,1.60
2022-12-03T07:46:13.357Z,1.70
2022-12-03T07:48:40.380Z,1.70
2022-12-03T07:51:08.839Z,1.70
2022-12-03T07:53:37.632Z,1.70
2022-12-03T07:56:05.217Z,1.70
2022-12-03T07:58:32.260Z,1.70
2022-12-03T08:00:59.360Z,1.70
2022-12-03T08:03:26.614Z,1.80
2022-12-03T08:05:53.563Z,1.80
2022-12-03T08:08:20.552Z,1.80
2022-12-03T08:10:47.539Z,1.80
2022-12-03T08:13:17.286Z,1.80
2022-12-03T08:15:44.786Z,1.80
2022-12-03T08:18:18.136Z,1.80
2022-12-03T08:20:47.914Z,1.80
2022-12-03T08:23:20.471Z,1.80
2022-12-03T08:25:48.424Z,1.80
2022-12-03T08:28:25.782Z,1.80
2022-12-03T08:31:01.625Z,1.80
2022-12-03T08:36:14.156Z,1.80
2022-12-03T08:38:41.212Z,1.80
2022-12-03T08:41:40.022Z,1.80
2022-12-03T08:44:36.586Z,1.80
2022-12-03T08:47:09.382Z,1.70
2022-12-03T08:49:36.998Z,1.70
2022-12-03T08:52:15.176Z,1.60
2022-12-03T08:54:43.866Z,1.60
2022-12-03T08:57:29.828Z,1.60
2022-12-03T09:00:22.385Z,1.60
2022-12-03T09:02:54.845Z,1.60
2022-12-03T09:05:34.762Z,1.60
2022-12-03T09:08:01.810Z,1.60
2022-12-03T09:10:28.966Z,1.60
2022-12-03T09:12:55.956Z,1.70
2022-12-03T09:15:22.917Z,1.70
2022-12-03T09:17:49.889Z,1.70
2022-12-03T09:20:17.019Z,1.70
2022-12-03T09:22:44.167Z,1.70
2022-12-03T09:25:11.497Z,1.70
2022-12-03T09:27:38.534Z,1.70
2022-12-03T09:30:06.335Z,1.70
2022-12-03T09:32:33.409Z,1.80
2022-12-03T09:35:00.463Z,1.80
2022-12-03T09:37:27.541Z,1.80
2022-12-03T09:39:54.459Z,1.80
2022-12-03T09:42:21.476Z,1.80
2022-12-03T09:44:48.501Z,1.90
2022-12-03T09:47:15.435Z,1.90
2022-12-03T09:49:43.002Z,1.90
2022-12-03T09:52:17.057Z,1.90
2022-12-03T09:54:47.287Z,1.90
2022-12-03T09:57:15.482Z,1.90
2022-12-03T09:59:42.732Z,2.00
2022-12-03T10:02:27.984Z,2.00
2022-12-03T10:04:57.910Z,1.90
2022-12-03T10:07:26.171Z,1.90
2022-12-03T10:09:53.657Z,2.00
2022-12-03T10:12:24.792Z,2.10
2022-12-03T10:14:53.618Z,2.10
2022-12-03T10:17:20.927Z,2.00
2022-12-03T10:19:48.292Z,2.10
2022-12-03T10:22:15.381Z,2.10
2022-12-03T10:24:45.034Z,2.10
2022-12-03T10:27:24.539Z,2.10
2022-12-03T10:29:59.720Z,2.00
2022-12-03T10:32:39.645Z,2.00
2022-12-03T10:35:11.838Z,2.00
2022-12-03T10:38:00.586Z,1.90
2022-12-03T10:40:31.960Z,1.80
2022-12-03T10:43:15.683Z,1.80
2022-12-03T10:45:43.641Z,1.80
2022-12-03T10:48:20.334Z,1.70
2022-12-03T10:50:53.391Z,1.80
2022-12-03T10:53:23.570Z,1.80
2022-12-03T10:55:52.300Z,1.80
2022-12-03T10:58:27.472Z,1.80
2022-12-03T11:00:57.473Z,1.70
2022-12-03T11:03:30.412Z,1.70
2022-12-03T11:06:00.310Z,1.80
2022-12-03T11:08:30.772Z,1.80
2022-12-03T11:11:03.715Z,1.80
2022-12-03T11:13:33.723Z,1.80
2022-12-03T11:16:10.361Z,1.80
2022-12-03T11:18:37.357Z,1.80
2022-12-03T11:21:15.216Z,1.80
2022-12-03T11:23:45.283Z,1.80
2022-12-03T11:26:18.568Z,1.80
2022-12-03T11:28:46.271Z,1.80
2022-12-03T11:31:45.811Z,1.90
2022-12-03T11:34:18.973Z,1.90
2022-12-03T11:37:10.659Z,1.90
2022-12-03T11:39:49.863Z,1.90
2022-12-03T11:42:28.596Z,1.90
2022-12-03T11:45:04.651Z,1.80
2022-12-03T11:47:41.054Z,1.80
2022-12-03T11:50:39.676Z,1.80
2022-12-03T11:53:19.306Z,1.90
2022-12-03T11:56:13.081Z,1.80
2022-12-03T11:58:43.261Z,1.80
2022-12-03T12:01:12.205Z,1.70
2022-12-03T12:03:48.351Z,1.70
2022-12-03T12:06:20.129Z,1.80
2022-12-03T12:08:53.138Z,1.80
2022-12-03T12:11:26.529Z,1.80
2022-12-03T12:13:59.090Z,1.80
2022-12-03T12:16:47.728Z,1.80
2022-12-03T12:19:37.670Z,1.80
2022-12-03T12:22:19.859Z,1.90
2022-12-03T12:24:51.731Z,1.80
2022-12-03T12:27:45.242Z,1.80
2022-12-03T12:30:19.926Z,1.70
2022-12-03T12:32:50.201Z,1.70
2022-12-03T12:35:27.047Z,1.70
2022-12-03T12:37:59.651Z,1.70
2022-12-03T12:40:33.685Z,1.70
2022-12-03T12:43:15.268Z,1.70
2022-12-03T12:45:45.398Z,1.70
2022-12-03T12:48:16.342Z,1.80
2022-12-03T12:50:45.762Z,1.80
2022-12-03T12:53:26.194Z,1.80
2022-12-03T12:56:01.035Z,1.80
2022-12-03T12:58:31.919Z,1.80
2022-12-03T13:01:01.613Z,1.70
2022-12-03T13:03:39.143Z,1.70
2022-12-03T13:06:06.484Z,1.70
2022-12-03T13:08:45.497Z,1.70
2022-12-03T13:11:25.859Z,1.70
2022-12-03T13:13:53.313Z,1.70
2022-12-03T13:16:28.073Z,1.60
2022-12-03T13:18:58.668Z,1.60
2022-12-03T13:21:41.094Z,1.50
2022-12-03T13:24:38.085Z,1.50
2022-12-03T13:27:17.210Z,1.50
2022-12-03T13:30:10.059Z,1.60
2022-12-03T13:32:38.437Z,1.50
2022-12-03T13:35:17.411Z,1.50
2022-12-03T13:37:45.550Z,1.50
2022-12-03T13:40:30.648Z,1.50
2022-12-03T13:42:58.464Z,1.40
2022-12-03T13:45:34.468Z,1.40
2022-12-03T13:48:21.805Z,1.50
2022-12-03T13:50:49.593Z,1.40
2022-12-03T13:53:29.377Z,1.40
2022-12-03T13:56:14.534Z,1.40
2022-12-03T13:58:41.618Z,1.50
2022-12-03T14:01:08.637Z,1.50
2022-12-03T14:03:35.698Z,1.60
2022-12-03T14:06:02.753Z,1.50
2022-12-03T14:08:29.714Z,1.50
2022-12-03T14:11:00.458Z,1.50
2022-12-03T14:13:27.753Z,1.50
2022-12-03T14:15:55.305Z,1.50
2022-12-03T14:18:22.437Z,1.50
2022-12-03T14:20:50.669Z,1.50
2022-12-03T14:23:17.681Z,1.40
2022-12-03T14:25:44.902Z,1.40
2022-12-03T14:28:12.056Z,1.40
2022-12-03T14:30:39.126Z,1.40
2022-12-03T14:33:06.241Z,1.30
2022-12-03T14:35:33.525Z,1.30
2022-12-03T14:38:00.703Z,1.30
2022-12-03T14:40:27.874Z,1.30
2022-12-03T14:42:54.966Z,1.40
2022-12-03T14:45:23.115Z,1.40
2022-12-03T14:47:50.053Z,1.30
2022-12-03T14:50:17.110Z,1.30
2022-12-03T14:52:44.165Z,1.20
2022-12-03T14:55:11.301Z,1.20
2022-12-03T14:57:38.284Z,1.20
2022-12-03T15:00:07.041Z,1.30
2022-12-03T15:02:34.202Z,1.30
2022-12-03T15:05:01.414Z,1.20
2022-12-03T15:07:28.582Z,1.20
2022-12-03T15:09:56.125Z,1.20
2022-12-03T15:12:23.546Z,1.20
2022-12-03T15:14:50.592Z,1.20
2022-12-03T15:17:22.576Z,1.20
2022-12-03T15:19:55.256Z,1.20
2022-12-03T15:22:22.768Z,1.20
2022-12-03T15:24:49.738Z,1.10
2022-12-03T15:27:16.720Z,1.10
2022-12-03T15:29:43.721Z,1.10
2022-12-03T15:32:10.727Z,1.10
2022-12-03T15:34:37.703Z,1.20
2022-12-03T15:37:04.820Z,1.10
2022-12-03T15:39:33.082Z,1.10
2022-12-03T15:42:00.044Z,1.20
2022-12-03T15:44:27.081Z,1.20
2022-12-03T15:46:54.038Z,1.20
2022-12-03T15:49:20.994Z,1.10
2022-12-03T15:51:48.016Z,1.10
2022-12-03T15:54:14.982Z,1.10
2022-12-03T15:56:42.046Z,1.10
2022-12-03T15:59:08.979Z,1.10
2022-12-03T16:01:36.126Z,1.10
2022-12-03T16:04:03.192Z,1.10
2022-12-03T16:06:30.208Z,1.20
2022-12-03T16:08:57.213Z,1.20
2022-12-03T16:11:24.202Z,1.20
2022-12-03T16:13:51.197Z,1.20
2022-12-03T16:16:18.375Z,1.20
2022-12-03T16:18:45.536Z,1.10
2022-12-03T16:21:12.497Z,1.00
2022-12-03T16:23:39.469Z,1.00
2022-12-03T16:26:07.259Z,1.00
2022-12-03T16:28:34.378Z,1.10
2022-12-03T16:31:01.516Z,1.10
2022-12-03T16:33:28.596Z,1.10
2022-12-03T16:35:55.703Z,1.10
2022-12-03T16:38:22.781Z,1.10
2022-12-03T16:40:49.790Z,1.00
2022-12-03T16:43:16.989Z,1.00
2022-12-03T16:46:03.043Z,1.10
2022-12-03T16:48:30.473Z,1.10
2022-12-03T16:50:57.513Z,1.00
2022-12-03T16:53:24.535Z,1.00
2022-12-03T16:55:51.483Z,1.00
2022-12-03T16:58:21.373Z,1.10
2022-12-03T17:00:49.394Z,1.10
2022-12-03T17:03:18.021Z,1.20
2022-12-03T17:05:45.628Z,1.20
2022-12-03T17:08:13.440Z,1.10
2022-12-03T17:10:40.882Z,1.00
2022-12-03T17:13:09.803Z,1.00
2022-12-03T17:15:37.516Z,1.00
2022-12-03T17:18:04.766Z,1.00
2022-12-03T17:20:33.114Z,1.00
2022-12-03T17:23:00.274Z,1.00
2022-12-03T17:25:28.031Z,0.90
2022-12-03T17:27:55.286Z,0.90
2022-12-03T17:30:22.591Z,0.90
2022-12-03T17:32:50.562Z,0.90
2022-12-03T17:35:18.156Z,0.90
2022-12-03T17:37:45.417Z,1.00
2022-12-03T17:40:15.063Z,1.00
2022-12-03T17:42:41.994Z,0.90
2022-12-03T17:45:09.759Z,0.90
2022-12-03T17:47:36.872Z,1.00
2022-12-03T17:50:04.644Z,1.00
2022-12-03T17:52:31.600Z,0.90
2022-12-03T17:55:22.249Z,1.00
2022-12-03T17:57:45.596Z,1.00
2022-12-03T18:00:13.100Z,0.90
2022-12-03T18:02:40.068Z,1.00
2022-12-03T18:05:07.348Z,0.90
2022-12-03T18:07:34.582Z,0.90
2022-12-03T18:10:01.637Z,0.90
2022-12-03T18:12:28.639Z,0.80
2022-12-03T18:14:55.699Z,0.90
2022-12-03T18:17:23.745Z,0.80
2022-12-03T18:19:51.020Z,0.80
2022-12-03T18:22:18.206Z,0.80
2022-12-03T18:24:50.248Z,0.80
2022-12-03T18:27:20.082Z,0.80
2022-12-03T18:29:47.141Z,0.70
2022-12-03T18:32:28.349Z,0.70
2022-12-03T18:34:57.582Z,0.70
2022-12-03T18:37:27.947Z,0.80
2022-12-03T18:39:56.529Z,0.80
2022-12-03T18:42:24.630Z,0.80
2022-12-03T18:44:53.626Z,0.80
2022-12-03T18:47:23.320Z,0.80
2022-12-03T18:49:50.412Z,0.80
2022-12-03T18:52:20.251Z,0.80
2022-12-03T18:54:48.099Z,0.80
2022-12-03T18:57:15.675Z,0.70
2022-12-03T18:59:42.717Z,0.80
2022-12-03T19:02:38.638Z,0.70
2022-12-03T19:05:03.897Z,0.70
2022-12-03T19:07:30.969Z,0.70
2022-12-03T19:09:58.037Z,0.70
2022-12-03T19:12:25.158Z,0.60
2022-12-03T19:14:52.261Z,0.60
2022-12-03T19:17:19.386Z,0.60
2022-12-03T19:19:46.602Z,0.60
2022-12-03T19:22:13.681Z,0.50
2022-12-03T19:24:40.585Z,0.60
2022-12-03T19:27:07.611Z,0.50
2022-12-03T19:29:34.622Z,0.60
2022-12-03T19:32:01.795Z,0.60
2022-12-03T19:34:28.970Z,0.60
2022-12-03T19:36:55.986Z,0.60
2022-12-03T19:39:23.042Z,0.60
2022-12-03T19:41:50.046Z,0.60
2022-12-03T19:44:18.844Z,0.60
2022-12-03T19:46:46.170Z,0.60
2022-12-03T19:49:13.233Z,0.60
2022-12-03T19:51:40.186Z,0.70
2022-12-03T19:54:17.455Z,0.70
2022-12-03T19:56:44.881Z,0.70
2022-12-03T19:59:13.619Z,0.70
2022-12-03T20:01:43.289Z,0.70
2022-12-03T20:04:12.100Z,0.80
2022-12-03T20:06:39.373Z,0.80
2022-12-03T20:09:13.141Z,0.80
2022-12-03T20:11:41.476Z,0.80
2022-12-03T20:14:11.282Z,0.80
2022-12-03T20:16:38.377Z,0.70
2022-12-03T20:19:06.902Z,0.80
2022-12-03T20:21:36.357Z,0.80
2022-12-03T20:24:04.646Z,0.70
2022-12-03T20:26:32.362Z,0.70
2022-12-03T20:28:59.885Z,0.70
2022-12-03T20:31:29.197Z,0.80
2022-12-03T20:33:58.675Z,0.80
2022-12-03T20:36:26.512Z,0.70
2022-12-03T20:38:58.181Z,0.70
2022-12-03T20:41:25.464Z,0.70
2022-12-03T20:43:53.642Z,0.70
2022-12-03T20:46:31.543Z,0.70
2022-12-03T20:48:59.712Z,0.70
2022-12-03T20:51:31.243Z,0.70
2022-12-03T20:53:59.544Z,0.70
2022-12-03T20:56:29.530Z,0.70
2022-12-03T20:58:56.465Z,0.70
2022-12-03T21:01:26.901Z,0.70
2022-12-03T21:03:56.158Z,0.70
2022-12-03T21:06:25.640Z,0.80
2022-12-03T21:08:56.783Z,0.80
2022-12-03T21:11:26.500Z,0.80
2022-12-03T21:13:54.488Z,0.80
2022-12-03T21:16:52.165Z,0.80
2022-12-03T21:19:14.459Z,0.90
2022-12-03T21:21:41.544Z,0.90
2022-12-03T21:24:08.970Z,0.90
2022-12-03T21:26:36.075Z,0.90
2022-12-03T21:29:03.104Z,0.90
2022-12-03T21:31:31.910Z,0.90
2022-12-03T21:33:59.280Z,0.80
2022-12-03T21:36:26.401Z,0.80
2022-12-03T21:38:53.658Z,0.80
2022-12-03T21:41:20.603Z,0.80
2022-12-03T21:43:47.558Z,0.80
2022-12-03T21:47:10.664Z,0.80
2022-12-03T21:49:04.469Z,0.80
2022-12-03T21:51:31.530Z,0.80
2022-12-03T21:53:58.490Z,0.80
2022-12-03T21:56:25.645Z,0.90
2022-12-03T21:58:52.671Z,0.90
2022-12-03T22:01:22.707Z,0.90
2022-12-03T22:03:50.138Z,0.90
2022-12-03T22:06:17.667Z,0.90
2022-12-03T22:08:44.902Z,0.90
2022-12-03T22:11:15.281Z,0.90
2022-12-03T22:13:42.747Z,0.90
2022-12-03T22:16:13.306Z,0.90
2022-12-03T22:18:40.645Z,0.90
2022-12-03T22:21:10.056Z,0.90
2022-12-03T22:23:37.342Z,0.90
2022-12-03T22:26:07.122Z,1.00
2022-12-03T22:28:34.764Z,1.00
2022-12-03T22:31:11.847Z,1.00
2022-12-03T22:33:39.471Z,0.90
2022-12-03T22:36:18.329Z,0.90
2022-12-03T22:38:47.409Z,0.90
2022-12-03T22:41:15.822Z,0.90
2022-12-03T22:43:43.174Z,0.90
2022-12-03T22:46:12.892Z,1.00
2022-12-03T22:48:45.183Z,1.00
2022-12-03T22:51:18.176Z,1.00
2022-12-03T22:53:45.251Z,1.00
2022-12-03T22:56:12.516Z,1.00
2022-12-03T22:58:40.384Z,1.00
2022-12-03T23:01:08.248Z,1.10
2022-12-03T23:03:36.008Z,1.10
2022-12-03T23:06:10.754Z,1.00
2022-12-03T23:08:37.901Z,1.00
2022-12-03T23:11:05.024Z,1.00
2022-12-03T23:13:31.948Z,1.00
2022-12-03T23:15:59.104Z,1.10
2022-12-03T23:18:26.110Z,1.10
2022-12-03T23:20:54.923Z,1.10
2022-12-03T23:23:24.644Z,1.10
2022-12-03T23:26:06.848Z,1.10
2022-12-03T23:28:35.827Z,1.10
2022-12-03T23:31:04.088Z,1.00
2022-12-03T23:33:36.686Z,1.00
2022-12-03T23:36:06.809Z,1.10
2022-12-03T23:38:33.978Z,1.10
2022-12-03T23:41:06.054Z,1.10
2022-12-03T23:43:33.154Z,1.10
2022-12-03T23:46:07.739Z,1.10
2022-12-03T23:48:34.746Z,1.10
2022-12-03T23:51:16.462Z,1.10
2022-12-03T23:53:43.548Z,1.10
2022-12-03T23:56:13.699Z,1.10
2022-12-03T23:58:40.897Z,1.00
